首页
METAR-TAF:

METAR-TAF

机场 :

雅蒲島, 密克罗尼西亚群岛

雅蒲島國際機場

纬度: 09-29N, 经度: 138-05E, 海拔: 28米

当前天气观测

该预报发布于27分钟前的12:51 UTC
风速3节,风向多变
温度 25°C
湿度 94%
气压 1009 hPa
能見度: 19.3公里
散云层高于1600英尺, 塔状积云.
多云层高于13000英尺
阴天层高于30000英尺

METAR: PTYA 171251Z VRB03KT 12SM SCT016TCU BKN130 OVC300 25/24 A2981 RMK TCU ALQDS SLP095 T02530241

时间: 23:18 (13:18 UTC)

预报

该预报发布于1小时和56分钟前的11:22 UTC
预报有效从17日的 12点(UTC)到 18日的 12点(UTC)
风速7节,风向东转东北
能見度: 10公里
散云层高于1600英尺
多云层高于13000英尺
阴天层高于30000英尺
附近有阵雨

TAF: PTYA 171122Z 1712/1812 07007KT P6SM VCSH SCT016 BKN130 OVC300

超过4000个机场的气象观测和天气预报(METAR&TAF报告)。

可查询的气象台以黄色和红色小点在地图上表示。

将鼠标移到小点上方,可查看气象台名称。

然后点击查看天气观测和预报。

如需切换地图:点击带黑十字的绿色按钮放大地图;点击带横线的绿色按钮缩小地图;或者点击绿色箭头查看邻近地区的地图。


METAR-TAF: